< Typhoon 199502 1995 Season Typhoon 199504 >
Typhoon 199503 (FAYE)
General InformationTrack Information on Google MapsDetailed Wind InformationList of All Images || Disaster Info.ResourceGoogle EarthGE AnimationAtom FeedGeoJSON
Detalied Best Track (Time Zone = UTC)
Year Month Day Hour Lat. Long. Pressure (hPa) Wind (kt) Class Image Chart
1995 7 16 06 16.0 141.9 1006 0 2 Image Chart
1995 7 16 12 16.7 141.7 1004 0 2 Image Chart
1995 7 16 18 17.3 141.4 1002 0 2 Image Chart
1995 7 17 00 17.8 140.8 1002 0 2 Image Chart
1995 7 17 06 18.2 140.3 1000 0 2 Image Chart
1995 7 17 12 18.5 139.7 998 35 3 Image Chart
1995 7 17 18 18.6 139.1 996 35 3 Image Chart
1995 7 18 00 18.7 138.4 994 35 3 Image Chart
1995 7 18 06 18.9 137.6 990 40 3 Image Chart
1995 7 18 12 19.1 136.9 985 45 3 Image Chart
1995 7 18 18 19.3 136.2 985 45 3 Image Chart
1995 7 19 00 19.6 135.3 980 50 4 Image Chart
1995 7 19 06 20.3 134.6 975 55 4 Image Chart
1995 7 19 12 20.8 133.6 975 55 4 Image Chart
1995 7 19 18 21.1 132.6 975 55 4 Image Chart
1995 7 20 00 21.4 131.7 975 55 4 Image Chart
1995 7 20 06 22.0 130.7 975 55 4 Image Chart
1995 7 20 12 22.8 129.7 975 55 4 Image Chart
1995 7 20 15 23.2 129.2 975 55 4 Image Chart
1995 7 20 18 23.6 128.7 975 55 4 Image Chart
1995 7 20 21 24.0 128.1 975 55 4 Image Chart
1995 7 21 00 24.4 127.6 975 55 4 Image Chart
1995 7 21 03 24.6 127.4 975 55 4 Image Chart
1995 7 21 06 24.8 127.3 975 55 4 Image Chart
1995 7 21 09 25.2 127.0 975 55 4 Image Chart
1995 7 21 12 25.5 126.7 970 60 4 Image Chart
1995 7 21 15 25.9 126.5 970 60 4 Image Chart
1995 7 21 18 26.4 126.3 965 60 4 Image Chart
1995 7 21 21 26.7 126.2 965 60 4 Image Chart
1995 7 22 00 27.0 126.2 960 65 5 Image Chart
1995 7 22 03 27.4 126.4 960 65 5 Image Chart
1995 7 22 06 28.0 126.6 955 70 5 Image Chart
1995 7 22 09 28.5 126.7 955 70 5 Image Chart
1995 7 22 12 29.2 127.0 955 70 5 Image Chart
1995 7 22 15 29.8 127.3 955 70 5 Image Chart
1995 7 22 18 30.6 127.6 950 75 5 Image Chart
1995 7 22 21 31.4 127.9 950 75 5 Image Chart
1995 7 23 00 32.5 127.8 950 75 5 Image Chart
1995 7 23 03 33.3 127.7 955 70 5 Image Chart
1995 7 23 06 34.3 127.8 960 65 5 Image Chart
1995 7 23 09 35.0 128.1 975 60 4 Image Chart
1995 7 23 12 35.9 128.4 985 50 4 Image Chart
1995 7 23 15 36.7 128.7 994 40 3 Image Chart
1995 7 23 18 37.6 129.4 994 40 3 Image Chart
1995 7 24 00 39.2 130.8 994 40 3 Image Chart
1995 7 24 06 40.5 132.4 998 35 3 Image Chart
1995 7 24 12 42.1 135.4 1002 0 2 Image Chart
1995 7 24 18 43.2 138.3 1004 0 2 Image Chart
1995 7 25 00 44.0 142.0 1006 0 2 Image Chart
Japan Meteorological Agency Best Track Data | Correction Date : 1996-01-19
< Typhoon 199502 1995 Season Typhoon 199504 >

Help